sensor_id;sensor_type;location;lat;lon;timestamp;pressure;altitude;pressure_sealevel;temperature;humidity
9141;BME280;46330;50.822;7.126;2023-04-07T00:01:35;100748.97;;;7.32;100.00
9141;BME280;46330;50.822;7.126;2023-04-07T00:04:03;100750.69;;;7.32;100.00
9141;BME280;46330;50.822;7.126;2023-04-07T00:06:31;100754.19;;;7.31;100.00
9141;BME280;46330;50.822;7.126;2023-04-07T00:08:59;100748.97;;;7.31;100.00
9141;BME280;46330;50.822;7.126;2023-04-07T00:11:28;100752.44;;;7.34;100.00
9141;BME280;46330;50.822;7.126;2023-04-07T00:13:56;100750.69;;;7.32;100.00
9141;BME280;46330;50.822;7.126;2023-04-07T00:16:24;100745.47;;;7.38;100.00
9141;BME280;46330;50.822;7.126;2023-04-07T00:18:53;100742.88;;;7.36;100.00
9141;BME280;46330;50.822;7.126;2023-04-07T00:21:20;100735.91;;;7.38;100.00
9141;BME280;46330;50.822;7.126;2023-04-07T00:23:48;100734.19;;;7.39;100.00
9141;BME280;46330;50.822;7.126;2023-04-07T00:26:18;100739.38;;;7.39;100.00
9141;BME280;46330;50.822;7.126;2023-04-07T00:28:48;100742.88;;;7.35;100.00
9141;BME280;46330;50.822;7.126;2023-04-07T00:31:16;100731.59;;;7.40;100.00
9141;BME280;46330;50.822;7.126;2023-04-07T00:33:44;100741.13;;;7.38;100.00
9141;BME280;46330;50.822;7.126;2023-04-07T00:36:14;100738.53;;;7.37;100.00
9141;BME280;46330;50.822;7.126;2023-04-07T00:38:42;100735.06;;;7.36;100.00
9141;BME280;46330;50.822;7.126;2023-04-07T00:41:10;100740.25;;;7.35;100.00
9141;BME280;46330;50.822;7.126;2023-04-07T00:43:38;100725.53;;;7.37;100.00
9141;BME280;46330;50.822;7.126;2023-04-07T00:46:07;100728.97;;;7.42;100.00
9141;BME280;46330;50.822;7.126;2023-04-07T00:48:35;100730.69;;;7.46;100.00
9141;BME280;46330;50.822;7.126;2023-04-07T00:51:05;100725.47;;;7.47;100.00
9141;BME280;46330;50.822;7.126;2023-04-07T00:53:33;100718.53;;;7.48;100.00
9141;BME280;46330;50.822;7.126;2023-04-07T00:56:01;100719.38;;;7.48;100.00
9141;BME280;46330;50.822;7.126;2023-04-07T00:58:29;100720.25;;;7.47;100.00
9141;BME280;46330;50.822;7.126;2023-04-07T01:01:03;100720.25;;;7.52;100.00
9141;BME280;46330;50.822;7.126;2023-04-07T01:03:42;100717.63;;;7.50;100.00
9141;BME280;46330;50.822;7.126;2023-04-07T01:06:14;100715.09;;;7.38;100.00
9141;BME280;46330;50.822;7.126;2023-04-07T01:08:50;100706.44;;;7.35;100.00
9141;BME280;46330;50.822;7.126;2023-04-07T01:11:22;100705.63;;;7.31;100.00
9141;BME280;46330;50.822;7.126;2023-04-07T01:13:53;100709.06;;;7.32;100.00
9141;BME280;46330;50.822;7.126;2023-04-07T01:16:38;100708.22;;;7.30;100.00
9141;BME280;46330;50.822;7.126;2023-04-07T01:19:15;100706.47;;;7.30;100.00
9141;BME280;46330;50.822;7.126;2023-04-07T01:21:53;100706.47;;;7.32;100.00
9141;BME280;46330;50.822;7.126;2023-04-07T01:24:38;100697.81;;;7.27;100.00
9141;BME280;46330;50.822;7.126;2023-04-07T01:27:16;100709.09;;;7.27;100.00
9141;BME280;46330;50.822;7.126;2023-04-07T01:29:47;100696.13;;;7.21;100.00
9141;BME280;46330;50.822;7.126;2023-04-07T01:32:17;100701.28;;;7.27;100.00
9141;BME280;46330;50.822;7.126;2023-04-07T01:34:48;100703.00;;;7.30;100.00
9141;BME280;46330;50.822;7.126;2023-04-07T01:37:17;100705.66;;;7.22;100.00
9141;BME280;46330;50.822;7.126;2023-04-07T01:39:45;100709.94;;;7.29;100.00
9141;BME280;46330;50.822;7.126;2023-04-07T01:42:14;100708.22;;;7.27;100.00
9141;BME280;46330;50.822;7.126;2023-04-07T01:44:43;100703.84;;;7.35;100.00
9141;BME280;46330;50.822;7.126;2023-04-07T01:47:14;100707.31;;;7.32;100.00
9141;BME280;46330;50.822;7.126;2023-04-07T01:49:43;100699.50;;;7.37;100.00
9141;BME280;46330;50.822;7.126;2023-04-07T01:52:12;100706.44;;;7.44;100.00
9141;BME280;46330;50.822;7.126;2023-04-07T01:54:42;100705.59;;;7.37;100.00
9141;BME280;46330;50.822;7.126;2023-04-07T01:57:10;100698.63;;;7.39;100.00
9141;BME280;46330;50.822;7.126;2023-04-07T01:59:39;100700.31;;;7.45;100.00
9141;BME280;46330;50.822;7.126;2023-04-07T02:02:07;100700.31;;;7.49;100.00
9141;BME280;46330;50.822;7.126;2023-04-07T02:04:41;100695.09;;;7.48;100.00
9141;BME280;46330;50.822;7.126;2023-04-07T02:07:19;100699.44;;;7.47;100.00
9141;BME280;46330;50.822;7.126;2023-04-07T02:09:50;100694.25;;;7.44;100.00
9141;BME280;46330;50.822;7.126;2023-04-07T02:12:24;100697.75;;;7.43;100.00
9141;BME280;46330;50.822;7.126;2023-04-07T02:15:03;100691.66;;;7.46;100.00
9141;BME280;46330;50.822;7.126;2023-04-07T02:17:33;100702.94;;;7.46;100.00
9141;BME280;46330;50.822;7.126;2023-04-07T02:20:08;100697.69;;;7.51;100.00
9141;BME280;46330;50.822;7.126;2023-04-07T02:22:38;100695.06;;;7.55;100.00
9141;BME280;46330;50.822;7.126;2023-04-07T02:25:22;100697.63;;;7.60;100.00
9141;BME280;46330;50.822;7.126;2023-04-07T02:27:54;100692.44;;;7.62;100.00
9141;BME280;46330;50.822;7.126;2023-04-07T02:30:23;100701.09;;;7.65;100.00
9141;BME280;46330;50.822;7.126;2023-04-07T02:32:51;100695.00;;;7.68;100.00
9141;BME280;46330;50.822;7.126;2023-04-07T02:35:21;100694.09;;;7.72;100.00
9141;BME280;46330;50.822;7.126;2023-04-07T02:37:49;100701.00;;;7.73;100.00
9141;BME280;46330;50.822;7.126;2023-04-07T02:40:17;100695.81;;;7.73;100.00
9141;BME280;46330;50.822;7.126;2023-04-07T02:42:45;100698.41;;;7.73;100.00
9141;BME280;46330;50.822;7.126;2023-04-07T02:45:13;100701.88;;;7.76;100.00
9141;BME280;46330;50.822;7.126;2023-04-07T02:47:42;100696.66;;;7.78;100.00
9141;BME280;46330;50.822;7.126;2023-04-07T02:50:10;100694.94;;;7.77;100.00
9141;BME280;46330;50.822;7.126;2023-04-07T02:52:40;100697.53;;;7.77;100.00
9141;BME280;46330;50.822;7.126;2023-04-07T02:55:12;100700.94;;;7.82;100.00
9141;BME280;46330;50.822;7.126;2023-04-07T02:57:40;100697.47;;;7.84;100.00
9141;BME280;46330;50.822;7.126;2023-04-07T03:00:18;100702.66;;;7.86;100.00
9141;BME280;46330;50.822;7.126;2023-04-07T03:03:04;100699.19;;;7.87;100.00
9141;BME280;46330;50.822;7.126;2023-04-07T03:05:36;100700.97;;;7.83;100.00
9141;BME280;46330;50.822;7.126;2023-04-07T03:08:06;100702.69;;;7.83;100.00
9141;BME280;46330;50.822;7.126;2023-04-07T03:10:35;100701.81;;;7.82;100.00
9141;BME280;46330;50.822;7.126;2023-04-07T03:13:03;100705.28;;;7.84;100.00
9141;BME280;46330;50.822;7.126;2023-04-07T03:15:33;100706.16;;;7.82;100.00
9141;BME280;46330;50.822;7.126;2023-04-07T03:18:01;100711.34;;;7.85;100.00
9141;BME280;46330;50.822;7.126;2023-04-07T03:20:29;100711.34;;;7.86;100.00
9141;BME280;46330;50.822;7.126;2023-04-07T03:23:08;100706.13;;;7.88;100.00
9141;BME280;46330;50.822;7.126;2023-04-07T03:25:36;100700.06;;;7.86;100.00
9141;BME280;46330;50.822;7.126;2023-04-07T03:28:04;100705.22;;;7.92;100.00
9141;BME280;46330;50.822;7.126;2023-04-07T03:30:36;100702.66;;;7.87;100.00
9141;BME280;46330;50.822;7.126;2023-04-07T03:33:05;100705.25;;;7.89;100.00
9141;BME280;46330;50.822;7.126;2023-04-07T03:35:33;100703.50;;;7.88;100.00
9141;BME280;46330;50.822;7.126;2023-04-07T03:38:01;100704.38;;;7.90;100.00
9141;BME280;46330;50.822;7.126;2023-04-07T03:40:30;100708.75;;;7.86;100.00
9141;BME280;46330;50.822;7.126;2023-04-07T03:43:01;100709.59;;;7.90;100.00
9141;BME280;46330;50.822;7.126;2023-04-07T03:45:29;100702.66;;;7.86;100.00
9141;BME280;46330;50.822;7.126;2023-04-07T03:47:57;100712.22;;;7.87;100.00
9141;BME280;46330;50.822;7.126;2023-04-07T03:50:25;100706.13;;;7.88;100.00
9141;BME280;46330;50.822;7.126;2023-04-07T03:53:07;100705.28;;;7.87;100.00
9141;BME280;46330;50.822;7.126;2023-04-07T03:55:36;100717.44;;;7.84;100.00
9141;BME280;46330;50.822;7.126;2023-04-07T03:58:12;100709.59;;;7.85;100.00
9141;BME280;46330;50.822;7.126;2023-04-07T04:00:41;100707.03;;;7.84;100.00
9141;BME280;46330;50.822;7.126;2023-04-07T04:03:11;100710.47;;;7.86;100.00
9141;BME280;46330;50.822;7.126;2023-04-07T04:05:59;100713.09;;;7.83;100.00
9141;BME280;46330;50.822;7.126;2023-04-07T04:08:29;100714.84;;;7.82;100.00
9141;BME280;46330;50.822;7.126;2023-04-07T04:10:59;100716.59;;;7.80;100.00
9141;BME280;46330;50.822;7.126;2023-04-07T04:13:34;100720.03;;;7.82;100.00
9141;BME280;46330;50.822;7.126;2023-04-07T04:16:04;100719.19;;;7.79;100.00
9141;BME280;46330;50.822;7.126;2023-04-07T04:18:34;100727.88;;;7.79;100.00
9141;BME280;46330;50.822;7.126;2023-04-07T04:21:03;100724.44;;;7.76;100.00
9141;BME280;46330;50.822;7.126;2023-04-07T04:23:32;100734.84;;;7.77;100.00
9141;BME280;46330;50.822;7.126;2023-04-07T04:26:02;100732.22;;;7.79;100.00
9141;BME280;46330;50.822;7.126;2023-04-07T04:28:32;100727.91;;;7.73;100.00
9141;BME280;46330;50.822;7.126;2023-04-07T04:31:02;100730.47;;;7.79;100.00
9141;BME280;46330;50.822;7.126;2023-04-07T04:33:36;100740.06;;;7.74;100.00
9141;BME280;46330;50.822;7.126;2023-04-07T04:36:05;100738.34;;;7.72;100.00
9141;BME280;46330;50.822;7.126;2023-04-07T04:38:33;100741.81;;;7.75;100.00
9141;BME280;46330;50.822;7.126;2023-04-07T04:41:14;100740.97;;;7.70;100.00
9141;BME280;46330;50.822;7.126;2023-04-07T04:43:42;100744.44;;;7.71;100.00
9141;BME280;46330;50.822;7.126;2023-04-07T04:46:16;100751.34;;;7.73;100.00
9141;BME280;46330;50.822;7.126;2023-04-07T04:48:44;100745.28;;;7.70;100.00
9141;BME280;46330;50.822;7.126;2023-04-07T04:51:12;100743.56;;;7.72;100.00
9141;BME280;46330;50.822;7.126;2023-04-07T04:53:40;100750.47;;;7.73;100.00
9141;BME280;46330;50.822;7.126;2023-04-07T04:56:08;100753.09;;;7.70;100.00
9141;BME280;46330;50.822;7.126;2023-04-07T04:58:45;100752.25;;;7.68;100.00
9141;BME280;46330;50.822;7.126;2023-04-07T05:01:24;100750.53;;;7.68;100.00
9141;BME280;46330;50.822;7.126;2023-04-07T05:04:00;100760.06;;;7.71;100.00
9141;BME280;46330;50.822;7.126;2023-04-07T05:06:29;100757.47;;;7.66;100.00
9141;BME280;46330;50.822;7.126;2023-04-07T05:09:02;100757.47;;;7.68;100.00
9141;BME280;46330;50.822;7.126;2023-04-07T05:11:39;100760.94;;;7.68;100.00
9141;BME280;46330;50.822;7.126;2023-04-07T05:14:09;100760.94;;;7.67;100.00
9141;BME280;46330;50.822;7.126;2023-04-07T05:16:42;100758.38;;;7.62;100.00
9141;BME280;46330;50.822;7.126;2023-04-07T05:19:16;100774.88;;;7.60;100.00
9141;BME280;46330;50.822;7.126;2023-04-07T05:21:44;100767.06;;;7.58;100.00
9141;BME280;46330;50.822;7.126;2023-04-07T05:24:13;100766.16;;;7.61;100.00
9141;BME280;46330;50.822;7.126;2023-04-07T05:26:45;100770.53;;;7.57;100.00
9141;BME280;46330;50.822;7.126;2023-04-07T05:29:14;100778.34;;;7.54;100.00
9141;BME280;46330;50.822;7.126;2023-04-07T05:31:42;100778.34;;;7.57;100.00
9141;BME280;46330;50.822;7.126;2023-04-07T05:34:13;100779.22;;;7.59;100.00
9141;BME280;46330;50.822;7.126;2023-04-07T05:36:47;100776.59;;;7.57;100.00
9141;BME280;46330;50.822;7.126;2023-04-07T05:39:15;100773.16;;;7.52;100.00
9141;BME280;46330;50.822;7.126;2023-04-07T05:41:44;100771.41;;;7.54;100.00
9141;BME280;46330;50.822;7.126;2023-04-07T05:44:15;100780.94;;;7.54;100.00
9141;BME280;46330;50.822;7.126;2023-04-07T05:46:43;100785.28;;;7.55;100.00
9141;BME280;46330;50.822;7.126;2023-04-07T05:49:13;100780.97;;;7.55;100.00
9141;BME280;46330;50.822;7.126;2023-04-07T05:51:51;100787.88;;;7.56;100.00
9141;BME280;46330;50.822;7.126;2023-04-07T05:54:19;100783.56;;;7.54;100.00
9141;BME280;46330;50.822;7.126;2023-04-07T05:56:50;100783.53;;;7.57;100.00
9141;BME280;46330;50.822;7.126;2023-04-07T05:59:21;100787.88;;;7.56;100.00
9141;BME280;46330;50.822;7.126;2023-04-07T06:01:50;100793.06;;;7.56;100.00
9141;BME280;46330;50.822;7.126;2023-04-07T06:04:19;100796.53;;;7.62;100.00
9141;BME280;46330;50.822;7.126;2023-04-07T06:06:50;100798.25;;;7.64;100.00
9141;BME280;46330;50.822;7.126;2023-04-07T06:09:20;100801.75;;;7.57;100.00
9141;BME280;46330;50.822;7.126;2023-04-07T06:11:48;100803.47;;;7.61;100.00
9141;BME280;46330;50.822;7.126;2023-04-07T06:14:20;100805.22;;;7.62;100.00
9141;BME280;46330;50.822;7.126;2023-04-07T06:16:48;100802.59;;;7.67;100.00
9141;BME280;46330;50.822;7.126;2023-04-07T06:19:17;100811.28;;;7.66;100.00
9141;BME280;46330;50.822;7.126;2023-04-07T06:21:45;100812.16;;;7.65;100.00
9141;BME280;46330;50.822;7.126;2023-04-07T06:24:12;100810.44;;;7.59;100.00
9141;BME280;46330;50.822;7.126;2023-04-07T06:26:40;100809.56;;;7.60;100.00
9141;BME280;46330;50.822;7.126;2023-04-07T06:29:08;100816.50;;;7.63;100.00
9141;BME280;46330;50.822;7.126;2023-04-07T06:31:38;100812.16;;;7.60;100.00
9141;BME280;46330;50.822;7.126;2023-04-07T06:34:06;100824.31;;;7.60;100.00
9141;BME280;46330;50.822;7.126;2023-04-07T06:36:34;100820.88;;;7.53;100.00
9141;BME280;46330;50.822;7.126;2023-04-07T06:39:03;100822.63;;;7.49;100.00
9141;BME280;46330;50.822;7.126;2023-04-07T06:41:31;100828.69;;;7.50;100.00
9141;BME280;46330;50.822;7.126;2023-04-07T06:43:59;100833.84;;;7.57;100.00
9141;BME280;46330;50.822;7.126;2023-04-07T06:46:27;100826.91;;;7.56;100.00
9141;BME280;46330;50.822;7.126;2023-04-07T06:48:56;100834.72;;;7.56;100.00
9141;BME280;46330;50.822;7.126;2023-04-07T06:51:24;100840.81;;;7.58;100.00
9141;BME280;46330;50.822;7.126;2023-04-07T06:53:53;100841.66;;;7.57;100.00
9141;BME280;46330;50.822;7.126;2023-04-07T06:56:21;100846.88;;;7.57;100.00
9141;BME280;46330;50.822;7.126;2023-04-07T06:58:49;100841.66;;;7.64;100.00
9141;BME280;46330;50.822;7.126;2023-04-07T07:01:17;100844.25;;;7.64;100.00
9141;BME280;46330;50.822;7.126;2023-04-07T07:03:45;100845.97;;;7.66;100.00
9141;BME280;46330;50.822;7.126;2023-04-07T07:06:15;100845.13;;;7.63;100.00
9141;BME280;46330;50.822;7.126;2023-04-07T07:08:43;100846.03;;;7.55;100.00
9141;BME280;46330;50.822;7.126;2023-04-07T07:11:11;100853.81;;;7.60;100.00
9141;BME280;46330;50.822;7.126;2023-04-07T07:13:39;100854.63;;;7.70;100.00
9141;BME280;46330;50.822;7.126;2023-04-07T07:16:07;100858.13;;;7.64;100.00
9141;BME280;46330;50.822;7.126;2023-04-07T07:18:35;100859.81;;;7.73;100.00
9141;BME280;46330;50.822;7.126;2023-04-07T07:21:03;100865.06;;;7.64;100.00
9141;BME280;46330;50.822;7.126;2023-04-07T07:23:32;100865.94;;;7.64;100.00
9141;BME280;46330;50.822;7.126;2023-04-07T07:26:01;100862.50;;;7.62;100.00
9141;BME280;46330;50.822;7.126;2023-04-07T07:28:29;100871.13;;;7.72;100.00
9141;BME280;46330;50.822;7.126;2023-04-07T07:30:58;100870.25;;;7.73;100.00
9141;BME280;46330;50.822;7.126;2023-04-07T07:33:26;100865.03;;;7.73;100.00
9141;BME280;46330;50.822;7.126;2023-04-07T07:35:54;100878.91;;;7.78;100.00
9141;BME280;46330;50.822;7.126;2023-04-07T07:38:22;100881.50;;;7.84;100.00
9141;BME280;46330;50.822;7.126;2023-04-07T07:40:52;100878.00;;;7.86;100.00
9141;BME280;46330;50.822;7.126;2023-04-07T07:43:20;100880.59;;;7.85;100.00
9141;BME280;46330;50.822;7.126;2023-04-07T07:45:48;100882.31;;;7.96;100.00
9141;BME280;46330;50.822;7.126;2023-04-07T07:48:16;100891.00;;;7.89;100.00
9141;BME280;46330;50.822;7.126;2023-04-07T07:50:44;100885.81;;;7.85;100.00
9141;BME280;46330;50.822;7.126;2023-04-07T07:53:12;100886.66;;;7.88;100.00
9141;BME280;46330;50.822;7.126;2023-04-07T07:55:40;100891.00;;;7.97;100.00
9141;BME280;46330;50.822;7.126;2023-04-07T07:58:10;100897.09;;;7.90;100.00
9141;BME280;46330;50.822;7.126;2023-04-07T08:00:39;100892.69;;;8.01;100.00
9141;BME280;46330;50.822;7.126;2023-04-07T08:03:07;100894.44;;;7.97;100.00
9141;BME280;46330;50.822;7.126;2023-04-07T08:05:35;100907.44;;;8.00;100.00
9141;BME280;46330;50.822;7.126;2023-04-07T08:08:03;100903.91;;;8.13;100.00
9141;BME280;46330;50.822;7.126;2023-04-07T08:10:31;100911.75;;;8.12;100.00
9141;BME280;46330;50.822;7.126;2023-04-07T08:12:59;100911.69;;;8.24;100.00
9141;BME280;46330;50.822;7.126;2023-04-07T08:15:28;100910.84;;;8.16;100.00
9141;BME280;46330;50.822;7.126;2023-04-07T08:17:56;100914.28;;;8.27;100.00
9141;BME280;46330;50.822;7.126;2023-04-07T08:20:25;100922.91;;;8.38;100.00
9141;BME280;46330;50.822;7.126;2023-04-07T08:22:53;100920.31;;;8.40;100.00
9141;BME280;46330;50.822;7.126;2023-04-07T08:25:21;100920.31;;;8.40;100.00
9141;BME280;46330;50.822;7.126;2023-04-07T08:27:49;100915.88;;;8.51;100.00
9141;BME280;46330;50.822;7.126;2023-04-07T08:30:17;100914.09;;;8.60;100.00
9141;BME280;46330;50.822;7.126;2023-04-07T08:32:48;100917.56;;;8.61;100.00
9141;BME280;46330;50.822;7.126;2023-04-07T08:35:16;100926.31;;;8.52;100.00
9141;BME280;46330;50.822;7.126;2023-04-07T08:37:44;100926.09;;;8.81;100.00
9141;BME280;46330;50.822;7.126;2023-04-07T08:40:13;100930.41;;;8.90;100.00
9141;BME280;46330;50.822;7.126;2023-04-07T08:42:42;100932.03;;;9.00;100.00
9141;BME280;46330;50.822;7.126;2023-04-07T08:45:12;100935.63;;;8.90;100.00
9141;BME280;46330;50.822;7.126;2023-04-07T08:47:40;100927.69;;;9.02;100.00
9141;BME280;46330;50.822;7.126;2023-04-07T08:50:11;100927.75;;;8.96;100.00
9141;BME280;46330;50.822;7.126;2023-04-07T08:52:43;100927.56;;;9.12;100.00
9141;BME280;46330;50.822;7.126;2023-04-07T08:55:12;100935.47;;;9.05;100.00
9141;BME280;46330;50.822;7.126;2023-04-07T08:57:41;100929.28;;;9.18;100.00
9141;BME280;46330;50.822;7.126;2023-04-07T09:00:10;100944.03;;;9.22;100.00
9141;BME280;46330;50.822;7.126;2023-04-07T09:02:40;100935.28;;;9.26;100.00
9141;BME280;46330;50.822;7.126;2023-04-07T09:05:11;100943.09;;;9.31;100.00
9141;BME280;46330;50.822;7.126;2023-04-07T09:07:40;100946.53;;;9.33;100.00
9141;BME280;46330;50.822;7.126;2023-04-07T09:10:09;100944.81;;;9.32;100.00
9141;BME280;46330;50.822;7.126;2023-04-07T09:12:37;100940.34;;;9.46;100.00
9141;BME280;46330;50.822;7.126;2023-04-07T09:15:07;100949.81;;;9.53;100.00
9141;BME280;46330;50.822;7.126;2023-04-07T09:17:35;100946.41;;;9.48;100.00
9141;BME280;46330;50.822;7.126;2023-04-07T09:20:03;100949.09;;;9.39;100.00
9141;BME280;46330;50.822;7.126;2023-04-07T09:22:37;100943.69;;;9.57;100.00
9141;BME280;46330;50.822;7.126;2023-04-07T09:25:13;100953.28;;;9.55;100.00
9141;BME280;46330;50.822;7.126;2023-04-07T09:27:53;100949.03;;;9.46;100.00
9141;BME280;46330;50.822;7.126;2023-04-07T09:30:21;100956.72;;;9.60;100.00
9141;BME280;46330;50.822;7.126;2023-04-07T09:32:50;100969.06;;;9.44;100.00
9141;BME280;46330;50.822;7.126;2023-04-07T09:35:18;100964.69;;;9.45;100.00
9141;BME280;46330;50.822;7.126;2023-04-07T09:38:04;100957.78;;;9.38;100.00
9141;BME280;46330;50.822;7.126;2023-04-07T09:40:32;100957.94;;;9.24;100.00
9141;BME280;46330;50.822;7.126;2023-04-07T09:43:02;100962.28;;;9.22;100.00
9141;BME280;46330;50.822;7.126;2023-04-07T09:45:31;100964.00;;;9.26;100.00
9141;BME280;46330;50.822;7.126;2023-04-07T09:48:06;100959.78;;;9.11;100.00
9141;BME280;46330;50.822;7.126;2023-04-07T09:50:37;100961.66;;;8.94;100.00
9141;BME280;46330;50.822;7.126;2023-04-07T09:53:08;100964.09;;;9.15;100.00
9141;BME280;46330;50.822;7.126;2023-04-07T09:55:36;100969.31;;;9.15;100.00
9141;BME280;46330;50.822;7.126;2023-04-07T09:58:07;100966.63;;;9.28;100.00
9141;BME280;46330;50.822;7.126;2023-04-07T10:00:35;100962.22;;;9.31;100.00
9141;BME280;46330;50.822;7.126;2023-04-07T10:03:04;100965.59;;;9.42;100.00
9141;BME280;46330;50.822;7.126;2023-04-07T10:05:33;100962.97;;;9.45;100.00
9141;BME280;46330;50.822;7.126;2023-04-07T10:08:02;100963.84;;;9.46;100.00
9141;BME280;46330;50.822;7.126;2023-04-07T10:10:34;100962.09;;;9.46;100.00
9141;BME280;46330;50.822;7.126;2023-04-07T10:13:03;100967.28;;;9.49;100.00
9141;BME280;46330;50.822;7.126;2023-04-07T10:15:32;100968.19;;;9.45;100.00
9141;BME280;46330;50.822;7.126;2023-04-07T10:18:03;100967.22;;;9.55;100.00
9141;BME280;46330;50.822;7.126;2023-04-07T10:20:35;100968.91;;;9.59;100.00
9141;BME280;46330;50.822;7.126;2023-04-07T10:23:15;100971.47;;;9.64;100.00
9141;BME280;46330;50.822;7.126;2023-04-07T10:25:46;100971.13;;;9.96;100.00
9141;BME280;46330;50.822;7.126;2023-04-07T10:28:15;100982.50;;;9.90;100.00
9141;BME280;46330;50.822;7.126;2023-04-07T10:30:46;100976.47;;;9.85;100.00
9141;BME280;46330;50.822;7.126;2023-04-07T10:33:15;100977.59;;;9.61;100.00
9141;BME280;46330;50.822;7.126;2023-04-07T10:36:02;100989.84;;;9.53;100.00
9141;BME280;46330;50.822;7.126;2023-04-07T10:38:30;100987.09;;;9.70;100.00
9141;BME280;46330;50.822;7.126;2023-04-07T10:41:33;100975.63;;;9.83;100.00
9141;BME280;46330;50.822;7.126;2023-04-07T10:44:02;100997.19;;;10.00;100.00
9141;BME280;46330;50.822;7.126;2023-04-07T10:50:19;101003.41;;;9.90;100.00
9141;BME280;46330;50.822;7.126;2023-04-07T10:52:48;100998.22;;;9.89;100.00
9141;BME280;46330;50.822;7.126;2023-04-07T10:55:28;100999.31;;;9.68;100.00
9141;BME280;46330;50.822;7.126;2023-04-07T10:58:21;100999.50;;;9.45;100.00
9141;BME280;46330;50.822;7.126;2023-04-07T11:01:18;101001.28;;;9.42;100.00
9141;BME280;46330;50.822;7.126;2023-04-07T11:03:57;101013.47;;;9.43;100.00
9141;BME280;46330;50.822;7.126;2023-04-07T11:06:26;100996.72;;;9.63;100.00
9141;BME280;46330;50.822;7.126;2023-04-07T11:08:54;101002.72;;;9.71;100.00
9141;BME280;46330;50.822;7.126;2023-04-07T11:11:39;101000.94;;;9.77;100.00
9141;BME280;46330;50.822;7.126;2023-04-07T11:14:09;101001.03;;;9.70;100.00
9141;BME280;46330;50.822;7.126;2023-04-07T11:16:39;101006.03;;;9.87;100.00
9141;BME280;46330;50.822;7.126;2023-04-07T11:19:08;101005.94;;;9.98;100.00
9141;BME280;46330;50.822;7.126;2023-04-07T11:21:36;101015.38;;;10.14;100.00
9141;BME280;46330;50.822;7.126;2023-04-07T11:24:04;101019.91;;;9.95;100.00
9141;BME280;46330;50.822;7.126;2023-04-07T11:26:40;101012.75;;;10.15;100.00
9141;BME280;46330;50.822;7.126;2023-04-07T11:29:10;101018.84;;;10.17;100.00
9141;BME280;46330;50.822;7.126;2023-04-07T11:31:39;101012.81;;;10.06;100.00
9141;BME280;46330;50.822;7.126;2023-04-07T11:34:07;101017.25;;;10.00;100.00
9141;BME280;46330;50.822;7.126;2023-04-07T11:36:37;101020.75;;;9.99;100.00
9141;BME280;46330;50.822;7.126;2023-04-07T11:39:17;101025.97;;;9.97;100.00
9141;BME280;46330;50.822;7.126;2023-04-07T11:41:47;101021.41;;;10.19;100.00
9141;BME280;46330;50.822;7.126;2023-04-07T11:44:17;101020.50;;;10.21;100.00
9141;BME280;46330;50.822;7.126;2023-04-07T11:46:52;101025.84;;;10.11;100.00
9141;BME280;46330;50.822;7.126;2023-04-07T11:49:20;101030.31;;;10.00;100.00
9141;BME280;46330;50.822;7.126;2023-04-07T11:51:57;101029.63;;;9.81;100.00
9141;BME280;46330;50.822;7.126;2023-04-07T11:54:26;101037.28;;;10.01;100.00
9141;BME280;46330;50.822;7.126;2023-04-07T11:56:53;101039.06;;;9.96;100.00
9141;BME280;46330;50.822;7.126;2023-04-07T11:59:24;101042.59;;;9.92;100.00
9141;BME280;46330;50.822;7.126;2023-04-07T12:01:52;101043.38;;;10.00;100.00
9141;BME280;46330;50.822;7.126;2023-04-07T12:04:27;101036.22;;;10.20;100.00
9141;BME280;46330;50.822;7.126;2023-04-07T12:07:06;101048.44;;;10.19;100.00
9141;BME280;46330;50.822;7.126;2023-04-07T12:09:34;101046.66;;;10.21;100.00
9141;BME280;46330;50.822;7.126;2023-04-07T12:12:04;101045.88;;;10.09;100.00
9141;BME280;46330;50.822;7.126;2023-04-07T12:14:35;101052.22;;;9.88;100.00
9141;BME280;46330;50.822;7.126;2023-04-07T12:17:03;101049.63;;;9.87;100.00
9141;BME280;46330;50.822;7.126;2023-04-07T12:19:33;101054.84;;;9.87;100.00
9141;BME280;46330;50.822;7.126;2023-04-07T12:22:02;101056.31;;;10.12;100.00
9141;BME280;46330;50.822;7.126;2023-04-07T12:24:30;101058.81;;;10.25;100.00
9141;BME280;46330;50.822;7.126;2023-04-07T12:26:58;101056.00;;;10.41;100.00
9141;BME280;46330;50.822;7.126;2023-04-07T12:29:26;101060.63;;;10.19;100.00
9141;BME280;46330;50.822;7.126;2023-04-07T12:31:55;101054.59;;;10.11;100.00
9141;BME280;46330;50.822;7.126;2023-04-07T12:34:26;101052.97;;;9.96;100.00
9141;BME280;46330;50.822;7.126;2023-04-07T12:36:54;101057.22;;;10.11;100.00
9141;BME280;46330;50.822;7.126;2023-04-07T12:39:22;101058.00;;;10.19;100.00
9141;BME280;46330;50.822;7.126;2023-04-07T12:41:50;101057.03;;;10.29;100.00
9141;BME280;46330;50.822;7.126;2023-04-07T12:44:19;101065.91;;;10.10;100.00
9141;BME280;46330;50.822;7.126;2023-04-07T12:46:47;101064.06;;;10.24;100.00
9141;BME280;46330;50.822;7.126;2023-04-07T12:49:16;101068.47;;;10.20;100.00
9141;BME280;46330;50.822;7.126;2023-04-07T12:51:44;101059.72;;;10.23;100.00
9141;BME280;46330;50.822;7.126;2023-04-07T12:54:12;101070.88;;;10.37;100.00
9141;BME280;46330;50.822;7.126;2023-04-07T12:56:40;101070.09;;;10.27;100.00
9141;BME280;46330;50.822;7.126;2023-04-07T12:59:08;101079.53;;;10.42;100.00
9141;BME280;46330;50.822;7.126;2023-04-07T13:01:36;101073.34;;;10.49;100.00
9141;BME280;46330;50.822;7.126;2023-04-07T13:04:04;101069.88;;;10.49;100.00
9141;BME280;46330;50.822;7.126;2023-04-07T13:06:34;101080.81;;;10.79;100.00
9141;BME280;46330;50.822;7.126;2023-04-07T13:09:02;101077.38;;;10.76;100.00
9141;BME280;46330;50.822;7.126;2023-04-07T13:11:30;101072.31;;;10.64;100.00
9141;BME280;46330;50.822;7.126;2023-04-07T13:13:58;101069.41;;;10.85;100.00
9141;BME280;46330;50.822;7.126;2023-04-07T13:16:27;101074.69;;;10.80;100.00
9141;BME280;46330;50.822;7.126;2023-04-07T13:18:55;101074.06;;;10.62;100.00
9141;BME280;46330;50.822;7.126;2023-04-07T13:21:23;101077.34;;;10.79;100.00